Wetterdaten: Woche 07.04.08 - 13.04.08 (KW15)
Datum Zeit Temperatur Luftfeuchte Luftdruck Niederschlag Wind Richtung Sonnenschein Solar Taupunkt Windchill Windben
07.04.2008 00:00 2.9 C 93 % 998.9 hPa 0.6 l/m 6.6 km/h (2 Bft) W-SW 0.00 h 0 W/m 1.8 C 1.2 C 10.2 km/h (2 Bft)
07.04.2008 01:00 2.3 C 94 % 999.4 hPa 0.6 l/m 5.0 km/h (1 Bft) W-SW 0.00 h 0 W/m 1.4 C 1.2 C 8.4 km/h (2 Bft)
07.04.2008 02:00 2.0 C 96 % 999.7 hPa 0.2 l/m 3.1 km/h (1 Bft) S-SW 0.00 h 0 W/m 1.4 C 1.8 C 5.9 km/h (2 Bft)
07.04.2008 03:00 2.1 C 96 % 999.6 hPa 0.0 l/m 3.9 km/h (1 Bft) S-SW 0.00 h 0 W/m 1.5 C 1.5 C 6.9 km/h (2 Bft)
07.04.2008 04:00 1.4 C 93 % 1000.5 hPa 0.4 l/m 19.4 km/h (3 Bft) W 0.00 h 0 W/m 0.4 C -3.3 C 29.3 km/h (5 Bft)
07.04.2008 05:00 0.7 C 89 % 1001.8 hPa 0.0 l/m 22.6 km/h (4 Bft) W 0.00 h 0 W/m -0.9 C -4.7 C 33.1 km/h (5 Bft)
07.04.2008 06:00 -0.1 C 84 % 1003.3 hPa 0.0 l/m 21.4 km/h (4 Bft) W 0.00 h 5 W/m -2.4 C -5.5 C 31.6 km/h (5 Bft)
07.04.2008 07:00 -0.5 C 71 % 1004.9 hPa 0.0 l/m 22.8 km/h (4 Bft) W 0.00 h 21 W/m -5.0 C -6.2 C 34.0 km/h (5 Bft)
07.04.2008 08:00 0.2 C 65 % 1006.1 hPa 0.0 l/m 11.6 km/h (2 Bft) W 0.90 h 205 W/m -5.6 C -3.4 C 17.7 km/h (3 Bft)
07.04.2008 09:00 1.2 C 59 % 1006.3 hPa 0.0 l/m 10.5 km/h (2 Bft) W-SW 1.00 h 388 W/m -5.9 C -1.8 C 17.3 km/h (3 Bft)
07.04.2008 10:00 2.5 C 52 % 1006.5 hPa 0.0 l/m 14.0 km/h (3 Bft) W-SW 1.00 h 584 W/m -6.3 C -1.0 C 22.1 km/h (4 Bft)
07.04.2008 11:00 3.3 C 48 % 1006.7 hPa 0.0 l/m 12.8 km/h (3 Bft) W-SW 0.52 h 376 W/m -6.6 C 0.1 C 20.7 km/h (4 Bft)
07.04.2008 12:00 3.6 C 48 % 1007.1 hPa 0.0 l/m 15.3 km/h (3 Bft) W 0.10 h 303 W/m -6.3 C -0.0 C 24.2 km/h (4 Bft)
07.04.2008 13:00 4.4 C 47 % 1007.6 hPa 0.0 l/m 15.4 km/h (3 Bft) W 0.53 h 458 W/m -5.8 C 1.0 C 23.7 km/h (4 Bft)
07.04.2008 14:00 5.4 C 45 % 1007.8 hPa 0.0 l/m 15.9 km/h (3 Bft) W 0.52 h 467 W/m -5.7 C 2.2 C 24.3 km/h (4 Bft)
07.04.2008 15:00 6.3 C 43 % 1008.2 hPa 0.0 l/m 14.3 km/h (3 Bft) W 0.67 h 539 W/m -5.5 C 3.5 C 22.1 km/h (4 Bft)
07.04.2008 16:00 6.8 C 40 % 1008.4 hPa 0.0 l/m 14.6 km/h (3 Bft) W 0.97 h 562 W/m -5.8 C 4.1 C 22.3 km/h (4 Bft)
07.04.2008 17:00 6.9 C 42 % 1008.3 hPa 0.0 l/m 12.7 km/h (3 Bft) W 0.88 h 380 W/m -5.0 C 4.5 C 19.4 km/h (3 Bft)
07.04.2008 18:00 6.3 C 45 % 1008.0 hPa 0.0 l/m 11.6 km/h (2 Bft) W-NW 0.97 h 199 W/m -4.8 C 3.9 C 17.7 km/h (3 Bft)
07.04.2008 19:00 5.3 C 50 % 1008.5 hPa 0.0 l/m 7.2 km/h (2 Bft) W-NW 0.45 h 53 W/m -4.2 C 3.8 C 11.3 km/h (2 Bft)
07.04.2008 20:00 3.2 C 59 % 1008.6 hPa 0.0 l/m 1.7 km/h (1 Bft) W-NW 0.00 h 5 W/m -4.0 C 3.1 C 3.0 km/h (1 Bft)
07.04.2008 21:00 1.3 C 70 % 1008.5 hPa 0.0 l/m 1.1 km/h (0 Bft) O 0.00 h 0 W/m -3.5 C 1.2 C 2.4 km/h (1 Bft)
07.04.2008 22:00 0.2 C 77 % 1008.6 hPa 0.0 l/m 2.4 km/h (1 Bft) O-SO 0.00 h 0 W/m -3.4 C -0.1 C 3.6 km/h (1 Bft)
07.04.2008 23:00 -0.5 C 80 % 1008.3 hPa 0.0 l/m 0.8 km/h (0 Bft) O-SO 0.00 h 0 W/m -3.4 C -0.5 C 1.5 km/h (1 Bft)
08.04.2008 00:00 -0.8 C 82 % 1007.9 hPa 0.0 l/m 1.4 km/h (1 Bft) O-SO 0.00 h 0 W/m -3.5 C -0.8 C 2.4 km/h (1 Bft)
08.04.2008 01:00 -0.9 C 82 % 1007.6 hPa 0.0 l/m 0.8 km/h (0 Bft) O-SO 0.00 h 0 W/m -3.6 C -0.9 C 1.8 km/h (1 Bft)
08.04.2008 02:00 -0.9 C 83 % 1007.4 hPa 0.0 l/m 0.4 km/h (0 Bft) O-SO 0.00 h 0 W/m -3.3 C -0.9 C 1.1 km/h (0 Bft)
08.04.2008 03:00 -1.1 C 85 % 1006.8 hPa 0.0 l/m 0.3 km/h (0 Bft) O-SO 0.00 h 0 W/m -3.3 C -1.1 C 1.0 km/h (0 Bft)
08.04.2008 04:00 -1.5 C 85 % 1006.1 hPa 0.0 l/m 0.6 km/h (0 Bft) SW 0.00 h 0 W/m -3.7 C -1.5 C 1.5 km/h (1 Bft)
08.04.2008 05:00 -1.8 C 85 % 1005.7 hPa 0.0 l/m 0.4 km/h (0 Bft) SW 0.00 h 0 W/m -3.9 C -1.8 C 1.4 km/h (1 Bft)
08.04.2008 06:00 -2.1 C 86 % 1005.3 hPa 0.0 l/m 0.5 km/h (0 Bft) S-SO 0.00 h 7 W/m -4.1 C -2.1 C 1.3 km/h (1 Bft)
08.04.2008 07:00 -1.6 C 86 % 1005.1 hPa 0.0 l/m 0.0 km/h (0 Bft) N 0.03 h 34 W/m -3.6 C -1.6 C 0.2 km/h (0 Bft)
08.04.2008 08:00 -0.3 C 84 % 1005.2 hPa 0.0 l/m 0.1 km/h (0 Bft) S-SO 0.00 h 85 W/m -2.7 C -0.3 C 0.6 km/h (0 Bft)
08.04.2008 09:00 1.1 C 77 % 1005.1 hPa 0.0 l/m 0.6 km/h (0 Bft) S-SO 0.00 h 108 W/m -2.5 C 1.1 C 1.8 km/h (1 Bft)
08.04.2008 10:00 2.5 C 68 % 1005.0 hPa 0.0 l/m 2.4 km/h (1 Bft) O-SO 0.00 h 198 W/m -2.8 C 2.3 C 5.0 km/h (1 Bft)
08.04.2008 11:00 3.4 C 64 % 1005.0 hPa 0.0 l/m 1.2 km/h (1 Bft) SO 0.00 h 205 W/m -2.6 C 3.3 C 3.1 km/h (1 Bft)
08.04.2008 12:00 4.1 C 61 % 1004.7 hPa 0.0 l/m 1.9 km/h (1 Bft) O-SO 0.00 h 200 W/m -2.8 C 4.0 C 4.0 km/h (1 Bft)
08.04.2008 13:00 5.2 C 57 % 1004.3 hPa 0.0 l/m 4.0 km/h (1 Bft) SO 0.13 h 373 W/m -2.6 C 4.7 C 7.0 km/h (2 Bft)
08.04.2008 14:00 6.4 C 54 % 1003.9 hPa 0.0 l/m 2.8 km/h (1 Bft) N 0.10 h 263 W/m -2.4 C 6.1 C 5.4 km/h (1 Bft)
08.04.2008 15:00 6.6 C 53 % 1004.4 hPa 0.0 l/m 2.2 km/h (1 Bft) W-SW 0.00 h 210 W/m -2.3 C 6.6 C 4.3 km/h (1 Bft)
08.04.2008 16:00 6.5 C 59 % 1004.6 hPa 0.0 l/m 3.5 km/h (1 Bft) W-NW 0.00 h 183 W/m -0.9 C 6.3 C 6.0 km/h (2 Bft)
08.04.2008 17:00 5.5 C 69 % 1004.4 hPa 0.0 l/m 2.6 km/h (1 Bft) S-SW 0.00 h 92 W/m 0.3 C 5.4 C 5.1 km/h (1 Bft)
08.04.2008 18:00 5.0 C 73 % 1004.2 hPa 0.0 l/m 1.0 km/h (0 Bft) W-SW 0.00 h 62 W/m 0.6 C 5.0 C 2.2 km/h (1 Bft)
08.04.2008 19:00 4.8 C 79 % 1004.1 hPa 0.0 l/m 0.0 km/h (0 Bft) W-SW 0.00 h 37 W/m 1.5 C 4.8 C 0.5 km/h (0 Bft)
08.04.2008 20:00 4.2 C 86 % 1004.2 hPa 0.2 l/m 0.5 km/h (0 Bft) W-SW 0.00 h 0 W/m 2.1 C 4.2 C 2.2 km/h (1 Bft)
08.04.2008 21:00 3.9 C 90 % 1004.7 hPa 0.2 l/m 0.6 km/h (0 Bft) SW 0.00 h 0 W/m 2.4 C 3.9 C 2.0 km/h (1 Bft)
08.04.2008 22:00 3.8 C 92 % 1004.5 hPa 0.0 l/m 0.0 km/h (0 Bft) N 0.00 h 0 W/m 2.6 C 3.8 C 0.1 km/h (0 Bft)
08.04.2008 23:00 4.0 C 90 % 1004.2 hPa 0.0 l/m 1.0 km/h (0 Bft) S-SO 0.00 h 0 W/m 2.6 C 4.0 C 2.1 km/h (1 Bft)
09.04.2008 00:00 4.2 C 89 % 1003.8 hPa 0.0 l/m 1.1 km/h (1 Bft) SO 0.00 h 0 W/m 2.5 C 4.2 C 3.0 km/h (1 Bft)
09.04.2008 01:00 4.2 C 88 % 1003.1 hPa 0.0 l/m 0.1 km/h (0 Bft) SO 0.00 h 0 W/m 2.3 C 4.2 C 0.7 km/h (0 Bft)
09.04.2008 02:00 4.2 C 87 % 1002.9 hPa 0.0 l/m 1.9 km/h (1 Bft) SO 0.00 h 0 W/m 2.3 C 4.0 C 3.7 km/h (1 Bft)
09.04.2008 03:00 4.2 C 87 % 1002.3 hPa 0.0 l/m 1.9 km/h (1 Bft) SO 0.00 h 0 W/m 2.2 C 4.1 C 4.3 km/h (1 Bft)
09.04.2008 04:00 4.0 C 87 % 1001.9 hPa 0.0 l/m 1.2 km/h (1 Bft) S 0.00 h 0 W/m 2.1 C 4.0 C 3.0 km/h (1 Bft)
09.04.2008 05:00 4.0 C 88 % 1001.5 hPa 0.0 l/m 1.1 km/h (1 Bft) O-SO 0.00 h 0 W/m 2.1 C 3.9 C 2.4 km/h (1 Bft)
09.04.2008 06:00 3.9 C 89 % 1000.9 hPa 0.0 l/m 0.5 km/h (0 Bft) O-SO 0.00 h 5 W/m 2.2 C 3.9 C 1.0 km/h (0 Bft)
09.04.2008 07:00 4.0 C 89 % 1000.5 hPa 0.0 l/m 0.3 km/h (0 Bft) O-SO 0.00 h 16 W/m 2.4 C 4.0 C 1.0 km/h (0 Bft)
09.04.2008 08:00 4.6 C 87 % 1000.2 hPa 0.0 l/m 0.6 km/h (0 Bft) O-NO 0.00 h 71 W/m 2.7 C 4.6 C 1.4 km/h (1 Bft)
09.04.2008 09:00 5.9 C 83 % 999.6 hPa 0.0 l/m 0.7 km/h (0 Bft) O-NO 0.18 h 216 W/m 3.2 C 5.9 C 2.3 km/h (1 Bft)
09.04.2008 10:00 7.5 C 76 % 998.7 hPa 0.0 l/m 1.6 km/h (1 Bft) O-NO 0.95 h 408 W/m 3.5 C 7.5 C 3.2 km/h (1 Bft)
09.04.2008 11:00 8.5 C 73 % 997.6 hPa 0.0 l/m 3.1 km/h (1 Bft) N-NW 0.17 h 279 W/m 4.1 C 8.4 C 5.6 km/h (1 Bft)
09.04.2008 12:00 9.4 C 74 % 996.3 hPa 0.2 l/m 1.8 km/h (1 Bft) NW 0.00 h 215 W/m 5.0 C 9.4 C 3.6 km/h (1 Bft)
09.04.2008 13:00 10.0 C 75 % 995.8 hPa 0.0 l/m 1.4 km/h (1 Bft) N 0.00 h 181 W/m 5.8 C 10.0 C 3.3 km/h (1 Bft)
09.04.2008 14:00 10.2 C 79 % 996.1 hPa 0.0 l/m 2.3 km/h (1 Bft) SW 0.00 h 170 W/m 6.6 C 10.2 C 4.6 km/h (1 Bft)
09.04.2008 15:00 9.6 C 80 % 996.4 hPa 0.4 l/m 4.8 km/h (1 Bft) S-SO 0.00 h 75 W/m 6.4 C 9.4 C 8.1 km/h (2 Bft)
09.04.2008 16:00 9.1 C 88 % 996.1 hPa 0.2 l/m 1.8 km/h (1 Bft) SO 0.00 h 87 W/m 7.3 C 9.1 C 3.9 km/h (1 Bft)
09.04.2008 17:00 9.6 C 87 % 995.2 hPa 0.0 l/m 0.8 km/h (0 Bft) S 0.02 h 102 W/m 7.5 C 9.6 C 2.1 km/h (1 Bft)
09.04.2008 18:00 8.9 C 91 % 995.1 hPa 1.4 l/m 2.6 km/h (1 Bft) N-NW 0.00 h 31 W/m 7.4 C 8.8 C 4.4 km/h (1 Bft)
09.04.2008 19:00 8.4 C 96 % 995.6 hPa 6.2 l/m 2.0 km/h (1 Bft) O-SO 0.00 h 6 W/m 7.8 C 8.3 C 3.7 km/h (1 Bft)
09.04.2008 20:00 8.5 C 97 % 995.4 hPa 0.4 l/m 2.7 km/h (1 Bft) S-SO 0.00 h 0 W/m 8.1 C 8.4 C 4.8 km/h (1 Bft)
09.04.2008 21:00 8.4 C 97 % 996.4 hPa 2.4 l/m 2.0 km/h (1 Bft) S-SO 0.00 h 0 W/m 8.0 C 8.3 C 4.3 km/h (1 Bft)
09.04.2008 22:00 8.5 C 96 % 996.7 hPa 0.4 l/m 5.1 km/h (1 Bft) S-SO 0.00 h 0 W/m 8.0 C 7.9 C 9.5 km/h (2 Bft)
09.04.2008 23:00 8.4 C 97 % 997.3 hPa 2.4 l/m 2.7 km/h (1 Bft) SW 0.00 h 0 W/m 7.9 C 8.2 C 5.9 km/h (2 Bft)
10.04.2008 00:00 8.5 C 97 % 997.6 hPa 1.8 l/m 5.6 km/h (1 Bft) S 0.00 h 0 W/m 8.0 C 7.9 C 10.3 km/h (2 Bft)
10.04.2008 01:00 8.3 C 97 % 997.6 hPa 0.8 l/m 2.1 km/h (1 Bft) S-SW 0.00 h 0 W/m 7.9 C 8.2 C 4.6 km/h (1 Bft)
10.04.2008 02:00 8.3 C 98 % 997.4 hPa 1.4 l/m 3.3 km/h (1 Bft) SO 0.00 h 0 W/m 8.0 C 8.1 C 5.1 km/h (1 Bft)
10.04.2008 03:00 7.9 C 98 % 996.9 hPa 0.2 l/m 2.1 km/h (1 Bft) S-SO 0.00 h 0 W/m 7.6 C 7.8 C 3.5 km/h (1 Bft)
10.04.2008 04:00 7.7 C 99 % 996.6 hPa 0.0 l/m 1.9 km/h (1 Bft) SO 0.00 h 0 W/m 7.5 C 7.7 C 3.5 km/h (1 Bft)
10.04.2008 05:00 7.7 C 99 % 996.3 hPa 0.0 l/m 1.5 km/h (1 Bft) O-SO 0.00 h 0 W/m 7.5 C 7.6 C 2.7 km/h (1 Bft)
10.04.2008 06:00 6.8 C 99 % 996.2 hPa 0.4 l/m 0.9 km/h (0 Bft) O-SO 0.00 h 6 W/m 6.7 C 6.8 C 1.7 km/h (1 Bft)
10.04.2008 07:00 7.1 C 100 % 996.5 hPa 1.2 l/m 1.2 km/h (1 Bft) O-SO 0.00 h 8 W/m 7.0 C 7.1 C 2.2 km/h (1 Bft)
10.04.2008 08:00 7.9 C 100 % 997.2 hPa 0.6 l/m 0.9 km/h (0 Bft) O-SO 0.00 h 27 W/m 7.9 C 7.9 C 2.3 km/h (1 Bft)
10.04.2008 09:00 8.2 C 100 % 997.5 hPa 1.4 l/m 2.3 km/h (1 Bft) S-SO 0.00 h 33 W/m 8.2 C 8.1 C 4.6 km/h (1 Bft)
10.04.2008 10:00 8.5 C 100 % 997.6 hPa 1.8 l/m 0.5 km/h (0 Bft) S 0.00 h 63 W/m 8.5 C 8.5 C 1.7 km/h (1 Bft)
10.04.2008 11:00 9.2 C 99 % 997.6 hPa 1.2 l/m 0.9 km/h (0 Bft) S-SO 0.00 h 121 W/m 9.1 C 9.2 C 2.0 km/h (1 Bft)
10.04.2008 12:00 10.0 C 97 % 997.5 hPa 1.2 l/m 1.8 km/h (1 Bft) S-SO 0.00 h 174 W/m 9.5 C 10.0 C 3.6 km/h (1 Bft)
10.04.2008 13:00 10.7 C 95 % 997.4 hPa 1.2 l/m 1.2 km/h (1 Bft) SO 0.00 h 149 W/m 9.9 C 10.7 C 3.5 km/h (1 Bft)
10.04.2008 14:00 10.9 C 95 % 997.4 hPa 1.8 l/m 0.7 km/h (0 Bft) S-SO 0.00 h 99 W/m 10.2 C 10.9 C 2.2 km/h (1 Bft)
10.04.2008 15:00 10.9 C 97 % 997.4 hPa 2.2 l/m 0.0 km/h (0 Bft) N 0.00 h 78 W/m 10.5 C 10.9 C 0.1 km/h (0 Bft)
10.04.2008 16:00 10.8 C 99 % 996.8 hPa 2.0 l/m 0.0 km/h (0 Bft) N 0.00 h 75 W/m 10.7 C 10.8 C 0.2 km/h (0 Bft)
10.04.2008 17:00 11.0 C 99 % 996.3 hPa 0.4 l/m 0.4 km/h (0 Bft) S-SO 0.00 h 101 W/m 10.8 C 11.0 C 1.1 km/h (1 Bft)
10.04.2008 18:00 11.2 C 95 % 995.7 hPa 0.0 l/m 2.2 km/h (1 Bft) SO 0.00 h 81 W/m 10.6 C 11.2 C 4.1 km/h (1 Bft)
10.04.2008 19:00 10.9 C 94 % 995.4 hPa 0.0 l/m 0.3 km/h (0 Bft) S-SO 0.00 h 21 W/m 10.0 C 10.9 C 0.8 km/h (0 Bft)
10.04.2008 20:00 10.3 C 95 % 995.3 hPa 0.0 l/m 0.0 km/h (0 Bft) S-SO 0.00 h 5 W/m 9.5 C 10.3 C 0.3 km/h (0 Bft)
10.04.2008 21:00 9.8 C 96 % 995.9 hPa 0.2 l/m 0.5 km/h (0 Bft) S-SO 0.00 h 0 W/m 9.1 C 9.8 C 1.1 km/h (1 Bft)
10.04.2008 22:00 10.0 C 97 % 997.6 hPa 3.4 l/m 3.6 km/h (1 Bft) W-SW 0.00 h 0 W/m 9.5 C 9.7 C 6.7 km/h (2 Bft)
10.04.2008 23:00 9.8 C 98 % 998.2 hPa 1.8 l/m 2.9 km/h (1 Bft) W-NW 0.00 h 0 W/m 9.5 C 9.6 C 5.1 km/h (1 Bft)
11.04.2008 00:00 9.3 C 98 % 996.6 hPa 0.0 l/m 2.2 km/h (1 Bft) W 0.00 h 0 W/m 9.0 C 9.2 C 3.7 km/h (1 Bft)
11.04.2008 01:00 8.7 C 98 % 996.9 hPa 0.0 l/m 2.0 km/h (1 Bft) SO 0.00 h 0 W/m 8.3 C 8.6 C 3.2 km/h (1 Bft)
11.04.2008 02:00 8.4 C 98 % 996.7 hPa 0.0 l/m 0.3 km/h (0 Bft) O 0.00 h 0 W/m 8.1 C 8.4 C 0.7 km/h (0 Bft)
11.04.2008 03:00 8.0 C 99 % 997.2 hPa 0.0 l/m 1.3 km/h (1 Bft) O 0.00 h 0 W/m 7.7 C 8.0 C 2.2 km/h (1 Bft)
11.04.2008 04:00 8.0 C 99 % 997.2 hPa 0.2 l/m 1.4 km/h (1 Bft) O 0.00 h 0 W/m 7.9 C 8.0 C 2.4 km/h (1 Bft)
11.04.2008 05:00 7.9 C 99 % 997.0 hPa 0.0 l/m 0.5 km/h (0 Bft) O 0.00 h 0 W/m 7.8 C 7.9 C 1.3 km/h (1 Bft)
11.04.2008 06:00 7.9 C 100 % 997.1 hPa 0.0 l/m 1.5 km/h (1 Bft) O 0.00 h 0 W/m 7.9 C 7.9 C 2.6 km/h (1 Bft)
11.04.2008 07:00 8.2 C 100 % 997.2 hPa 0.2 l/m 0.9 km/h (0 Bft) O-NO 0.00 h 26 W/m 8.2 C 8.2 C 1.7 km/h (1 Bft)
11.04.2008 08:00 8.5 C 100 % 997.4 hPa 1.0 l/m 0.9 km/h (0 Bft) O-NO 0.00 h 59 W/m 8.5 C 8.4 C 1.9 km/h (1 Bft)
11.04.2008 09:00 9.5 C 100 % 996.6 hPa 0.0 l/m 0.3 km/h (0 Bft) O-NO 0.00 h 141 W/m 9.5 C 9.5 C 1.1 km/h (0 Bft)
11.04.2008 10:00 10.2 C 100 % 996.8 hPa 0.0 l/m 0.2 km/h (0 Bft) O-NO 0.07 h 239 W/m 10.2 C 10.2 C 1.3 km/h (1 Bft)
11.04.2008 11:00 11.5 C 95 % 996.4 hPa 0.0 l/m 1.9 km/h (1 Bft) O-NO 0.30 h 327 W/m 10.7 C 11.5 C 3.4 km/h (1 Bft)
11.04.2008 12:00 12.6 C 87 % 996.0 hPa 0.0 l/m 0.9 km/h (0 Bft) NO 0.12 h 315 W/m 10.5 C 12.6 C 2.6 km/h (1 Bft)
11.04.2008 13:00 14.2 C 81 % 995.3 hPa 0.0 l/m 1.8 km/h (1 Bft) O-SO 0.75 h 583 W/m 10.9 C 14.2 C 3.9 km/h (1 Bft)
11.04.2008 14:00 15.3 C 74 % 995.1 hPa 0.0 l/m 2.7 km/h (1 Bft) NW 0.43 h 403 W/m 10.6 C 15.3 C 5.2 km/h (1 Bft)
11.04.2008 15:00 13.9 C 77 % 995.9 hPa 0.0 l/m 12.6 km/h (3 Bft) W 0.00 h 123 W/m 9.9 C 13.9 C 18.8 km/h (3 Bft)
11.04.2008 16:00 10.4 C 88 % 997.2 hPa 0.8 l/m 23.4 km/h (4 Bft) W-NW 0.00 h 131 W/m 8.5 C 9.3 C 34.6 km/h (5 Bft)
11.04.2008 17:00 8.5 C 88 % 998.9 hPa 0.6 l/m 25.3 km/h (4 Bft) W 0.00 h 49 W/m 6.5 C 5.0 C 38.8 km/h (5 Bft)
11.04.2008 18:00 6.7 C 92 % 1001.4 hPa 1.8 l/m 18.9 km/h (3 Bft) W 0.00 h 30 W/m 5.4 C 3.3 C 27.8 km/h (4 Bft)
11.04.2008 19:00 6.1 C 91 % 1003.6 hPa 0.0 l/m 18.4 km/h (3 Bft) W 0.00 h 10 W/m 4.8 C 2.7 C 26.9 km/h (4 Bft)
11.04.2008 20:00 5.9 C 91 % 1005.8 hPa 0.2 l/m 12.9 km/h (3 Bft) W 0.00 h 0 W/m 4.5 C 3.2 C 19.6 km/h (3 Bft)
11.04.2008 21:00 5.9 C 88 % 1007.5 hPa 0.0 l/m 7.3 km/h (2 Bft) W-SW 0.00 h 0 W/m 4.1 C 4.5 C 11.9 km/h (2 Bft)
11.04.2008 22:00 5.8 C 89 % 1008.5 hPa 0.0 l/m 1.6 km/h (1 Bft) S-SW 0.00 h 0 W/m 4.1 C 5.7 C 4.0 km/h (1 Bft)
11.04.2008 23:00 5.9 C 89 % 1009.1 hPa 0.0 l/m 1.2 km/h (1 Bft) S-SW 0.00 h 0 W/m 4.1 C 5.9 C 3.2 km/h (1 Bft)
12.04.2008 00:00 5.9 C 89 % 1009.7 hPa 0.0 l/m 1.3 km/h (1 Bft) S 0.00 h 0 W/m 4.2 C 5.9 C 3.5 km/h (1 Bft)
12.04.2008 01:00 5.4 C 90 % 1009.9 hPa 0.0 l/m 0.7 km/h (0 Bft) S 0.00 h 0 W/m 3.9 C 5.4 C 2.5 km/h (1 Bft)
12.04.2008 02:00 4.9 C 90 % 1010.0 hPa 0.0 l/m 1.4 km/h (1 Bft) S 0.00 h 0 W/m 3.5 C 4.9 C 3.1 km/h (1 Bft)
12.04.2008 03:00 4.6 C 92 % 1010.3 hPa 0.0 l/m 1.9 km/h (1 Bft) SO 0.00 h 0 W/m 3.5 C 4.6 C 3.4 km/h (1 Bft)
12.04.2008 04:00 4.6 C 93 % 1010.8 hPa 0.0 l/m 0.8 km/h (0 Bft) SO 0.00 h 0 W/m 3.5 C 4.5 C 1.9 km/h (1 Bft)
12.04.2008 05:00 4.6 C 92 % 1011.2 hPa 0.0 l/m 0.8 km/h (0 Bft) SO 0.00 h 0 W/m 3.4 C 4.6 C 2.1 km/h (1 Bft)
12.04.2008 06:00 4.6 C 92 % 1011.4 hPa 0.0 l/m 0.1 km/h (0 Bft) SO 0.03 h 9 W/m 3.4 C 4.6 C 0.9 km/h (0 Bft)
12.04.2008 07:00 4.5 C 92 % 1011.8 hPa 0.0 l/m 0.0 km/h (0 Bft) N 0.00 h 44 W/m 3.3 C 4.5 C 0.1 km/h (0 Bft)
12.04.2008 08:00 5.6 C 90 % 1012.1 hPa 0.0 l/m 0.5 km/h (0 Bft) S 0.80 h 199 W/m 4.0 C 5.6 C 1.7 km/h (1 Bft)
12.04.2008 09:00 6.9 C 84 % 1012.2 hPa 0.0 l/m 1.3 km/h (1 Bft) SO 0.85 h 313 W/m 4.3 C 6.9 C 3.6 km/h (1 Bft)
12.04.2008 10:00 8.8 C 77 % 1012.1 hPa 0.0 l/m 1.8 km/h (1 Bft) S-SO 1.00 h 549 W/m 5.0 C 8.8 C 4.2 km/h (1 Bft)
12.04.2008 11:00 10.8 C 66 % 1011.9 hPa 0.0 l/m 4.7 km/h (1 Bft) W-SW 0.80 h 586 W/m 4.7 C 10.8 C 7.9 km/h (2 Bft)
12.04.2008 12:00 11.3 C 56 % 1011.8 hPa 0.0 l/m 5.5 km/h (1 Bft) W 0.58 h 476 W/m 2.8 C 11.3 C 8.6 km/h (2 Bft)
12.04.2008 13:00 12.2 C 50 % 1011.4 hPa 0.0 l/m 4.8 km/h (1 Bft) W 0.52 h 552 W/m 2.1 C 12.2 C 8.2 km/h (2 Bft)
12.04.2008 14:00 13.4 C 48 % 1011.2 hPa 0.0 l/m 4.5 km/h (1 Bft) W-SW 0.68 h 610 W/m 2.5 C 13.4 C 7.4 km/h (2 Bft)
12.04.2008 15:00 12.5 C 51 % 1011.3 hPa 0.0 l/m 8.8 km/h (2 Bft) W-SW 0.32 h 370 W/m 2.8 C 12.5 C 14.3 km/h (3 Bft)
12.04.2008 16:00 13.3 C 50 % 1011.3 hPa 0.0 l/m 11.4 km/h (2 Bft) W 0.93 h 619 W/m 3.0 C 13.3 C 17.8 km/h (3 Bft)
12.04.2008 17:00 12.3 C 53 % 1011.7 hPa 0.0 l/m 7.0 km/h (2 Bft) W 0.47 h 233 W/m 3.0 C 12.3 C 10.8 km/h (2 Bft)
12.04.2008 18:00 12.2 C 56 % 1011.9 hPa 0.0 l/m 8.6 km/h (2 Bft) W 0.55 h 178 W/m 3.6 C 12.2 C 12.5 km/h (3 Bft)
12.04.2008 19:00 11.0 C 59 % 1012.4 hPa 0.0 l/m 4.4 km/h (1 Bft) W-SW 0.60 h 59 W/m 3.3 C 11.0 C 7.0 km/h (2 Bft)
12.04.2008 20:00 10.0 C 63 % 1012.8 hPa 0.0 l/m 2.1 km/h (1 Bft) W-SW 0.05 h 11 W/m 3.4 C 10.0 C 4.2 km/h (1 Bft)
12.04.2008 21:00 8.4 C 73 % 1013.7 hPa 0.0 l/m 3.2 km/h (1 Bft) O 0.00 h 0 W/m 3.8 C 8.2 C 4.9 km/h (1 Bft)
12.04.2008 22:00 6.7 C 79 % 1014.3 hPa 0.0 l/m 3.4 km/h (1 Bft) O 0.00 h 0 W/m 3.3 C 6.5 C 4.9 km/h (1 Bft)
12.04.2008 23:00 5.2 C 85 % 1014.8 hPa 0.0 l/m 1.8 km/h (1 Bft) O 0.00 h 0 W/m 2.9 C 5.2 C 3.2 km/h (1 Bft)
13.04.2008 00:00 4.0 C 89 % 1015.2 hPa 0.0 l/m 1.5 km/h (1 Bft) O 0.00 h 0 W/m 2.4 C 4.0 C 2.3 km/h (1 Bft)
13.04.2008 01:00 3.2 C 92 % 1015.3 hPa 0.0 l/m 1.5 km/h (1 Bft) O 0.00 h 0 W/m 2.0 C 3.2 C 2.2 km/h (1 Bft)
13.04.2008 02:00 2.6 C 93 % 1015.3 hPa 0.0 l/m 0.5 km/h (0 Bft) O 0.00 h 0 W/m 1.6 C 2.6 C 0.9 km/h (0 Bft)
13.04.2008 03:00 2.2 C 95 % 1015.4 hPa 0.0 l/m 0.9 km/h (0 Bft) O 0.00 h 0 W/m 1.5 C 2.2 C 1.6 km/h (1 Bft)
13.04.2008 04:00 2.0 C 96 % 1015.6 hPa 0.0 l/m 0.0 km/h (0 Bft) O 0.00 h 0 W/m 1.4 C 2.0 C 0.0 km/h (0 Bft)
13.04.2008 05:00 1.7 C 96 % 1015.8 hPa 0.0 l/m 0.5 km/h (0 Bft) O 0.00 h 0 W/m 1.2 C 1.7 C 1.0 km/h (0 Bft)
13.04.2008 06:00 1.8 C 97 % 1016.0 hPa 0.0 l/m 0.1 km/h (0 Bft) O 0.00 h 7 W/m 1.3 C 1.8 C 0.3 km/h (0 Bft)
13.04.2008 07:00 2.5 C 96 % 1016.4 hPa 0.0 l/m 0.4 km/h (0 Bft) O 0.00 h 24 W/m 1.9 C 2.4 C 0.8 km/h (0 Bft)
13.04.2008 08:00 3.1 C 94 % 1016.5 hPa 0.0 l/m 0.4 km/h (0 Bft) O-SO 0.00 h 58 W/m 2.3 C 3.1 C 1.2 km/h (1 Bft)
13.04.2008 09:00 4.5 C 91 % 1016.7 hPa 0.0 l/m 0.3 km/h (0 Bft) O-SO 0.12 h 198 W/m 3.1 C 4.5 C 1.4 km/h (1 Bft)
13.04.2008 10:00 7.1 C 81 % 1016.7 hPa 0.0 l/m 0.8 km/h (0 Bft) O-SO 0.45 h 404 W/m 4.0 C 7.1 C 2.5 km/h (1 Bft)
13.04.2008 11:00 11.1 C 64 % 1016.3 hPa 0.0 l/m 3.5 km/h (1 Bft) S 0.88 h 623 W/m 4.4 C 11.0 C 7.0 km/h (2 Bft)
13.04.2008 12:00 12.9 C 55 % 1015.8 hPa 0.0 l/m 4.7 km/h (1 Bft) SW 0.72 h 620 W/m 4.1 C 12.9 C 8.5 km/h (2 Bft)
13.04.2008 13:00 15.0 C 46 % 1015.0 hPa 0.0 l/m 6.5 km/h (2 Bft) W-SW 0.73 h 708 W/m 3.3 C 15.0 C 11.9 km/h (2 Bft)
13.04.2008 14:00 16.2 C 42 % 1014.2 hPa 0.0 l/m 6.9 km/h (2 Bft) SW 0.98 h 870 W/m 3.0 C 16.2 C 11.9 km/h (2 Bft)
13.04.2008 15:00 16.9 C 37 % 1013.5 hPa 0.0 l/m 6.9 km/h (2 Bft) SW 0.67 h 575 W/m 2.2 C 16.9 C 12.0 km/h (2 Bft)
13.04.2008 16:00 16.4 C 36 % 1012.8 hPa 0.0 l/m 8.8 km/h (2 Bft) W 0.55 h 399 W/m 1.4 C 16.4 C 14.4 km/h (3 Bft)
13.04.2008 17:00 16.4 C 37 % 1012.3 hPa 0.0 l/m 7.4 km/h (2 Bft) W 0.70 h 323 W/m 1.7 C 16.4 C 11.5 km/h (2 Bft)
13.04.2008 18:00 16.3 C 36 % 1011.9 hPa 0.0 l/m 6.2 km/h (2 Bft) W-SW 0.77 h 197 W/m 1.4 C 16.3 C 10.1 km/h (2 Bft)
13.04.2008 19:00 14.8 C 41 % 1011.8 hPa 0.0 l/m 2.3 km/h (1 Bft) W 0.22 h 51 W/m 1.7 C 14.8 C 4.3 km/h (1 Bft)
13.04.2008 20:00 11.9 C 54 % 1012.0 hPa 0.0 l/m 5.2 km/h (1 Bft) SO 0.00 h 7 W/m 2.8 C 11.9 C 6.9 km/h (2 Bft)
13.04.2008 21:00 9.6 C 67 % 1012.5 hPa 0.0 l/m 4.3 km/h (1 Bft) O-SO 0.00 h 0 W/m 3.8 C 9.3 C 6.1 km/h (2 Bft)
13.04.2008 22:00 8.3 C 73 % 1012.4 hPa 0.0 l/m 0.6 km/h (0 Bft) O-SO 0.00 h 0 W/m 3.8 C 8.3 C 1.3 km/h (1 Bft)
13.04.2008 23:00 7.0 C 80 % 1012.3 hPa 0.0 l/m 0.3 km/h (0 Bft) O-SO 0.00 h 0 W/m 3.9 C 7.0 C 0.6 km/h (0 Bft)
Min-Datum _ 08.04.08 13.04.08 09.04.08 - 07.04.08 - - - 07.04.08 07.04.08 07.04.08
_ Min-Zeit 06:14 18:23 18:45 - 01:59 - - - 10:52 07:03 20:18
Minimum _ -2.3 C 32 % 994.7 hPa - 0.0 km/h (0 Bft) - - - -7.6 C -7.0 C 0.0 km/h (0 Bft)
Max-Datum _ 13.04.08 10.04.08 13.04.08 09.04.08 11.04.08 - 07.04.08 13.04.08 11.04.08 13.04.08 11.04.08
_ Max-Zeit 15:38 06:50 10:30 19:05 17:21 - 18:50 13:56 13:17 15:38 17:30
Maximum _ 17.7 C 100 % 1016.9 hPa 6.2 l/m 38.2 km/h
W (5 Bft)
- 0.03 h 1067 W/m 12.3 C 17.8 C 67.8 km/h
W (8 Bft)
Durchschnitt _ 6.8 C 80 % 1004.5 hPa #46.0 l/m 4.0 km/h (1 Bft) W #26:43 h 216 W/m 3.2 C 6.3 C 6.7 km/h (2 Bft)
© Kaiko 2008